createdAt,value
2018-06-29T00:00:04.119Z,0.00
2018-06-29T00:01:04.094Z,0.00
2018-06-29T00:02:04.048Z,0.00
2018-06-29T00:03:03.980Z,0.00
2018-06-29T00:04:03.933Z,0.00
2018-06-29T00:05:03.885Z,0.00
2018-06-29T00:06:03.846Z,0.00
2018-06-29T00:07:03.824Z,0.00
2018-06-29T00:08:03.749Z,0.00
2018-06-29T00:09:03.704Z,0.00
2018-06-29T00:10:03.656Z,0.00
2018-06-29T00:11:03.609Z,0.00
2018-06-29T00:12:03.585Z,0.00
2018-06-29T00:13:03.524Z,0.00
2018-06-29T00:14:03.472Z,0.00
2018-06-29T00:15:03.441Z,0.00
2018-06-29T00:16:03.384Z,0.00
2018-06-29T00:17:03.358Z,0.00
2018-06-29T00:18:03.287Z,0.00
2018-06-29T00:19:03.246Z,0.00
2018-06-29T00:20:03.203Z,0.00
2018-06-29T00:21:03.162Z,0.00
2018-06-29T00:22:03.132Z,0.00
2018-06-29T00:23:03.066Z,0.00
2018-06-29T00:24:03.016Z,0.00
2018-06-29T00:25:02.970Z,0.00
2018-06-29T00:26:02.920Z,0.00
2018-06-29T00:27:02.896Z,0.00
2018-06-29T00:28:02.828Z,0.00
2018-06-29T00:29:02.781Z,0.00
2018-06-29T00:30:02.739Z,0.00
2018-06-29T00:31:02.692Z,0.00
2018-06-29T00:32:02.669Z,0.00
2018-06-29T00:33:02.600Z,0.00
2018-06-29T00:34:02.551Z,0.00
2018-06-29T00:35:02.505Z,0.00
2018-06-29T00:36:02.458Z,0.00
2018-06-29T00:37:02.439Z,0.00
2018-06-29T00:38:02.366Z,0.00
2018-06-29T00:39:02.319Z,0.00
2018-06-29T00:40:02.271Z,0.00
2018-06-29T00:41:02.226Z,0.00
2018-06-29T00:42:02.203Z,0.00
2018-06-29T00:43:02.133Z,0.00
2018-06-29T00:44:02.092Z,0.00
2018-06-29T00:45:02.044Z,0.00
2018-06-29T00:46:02.076Z,0.00
2018-06-29T00:47:01.975Z,0.00
2018-06-29T00:48:01.903Z,0.00
2018-06-29T00:49:01.860Z,0.00
2018-06-29T00:50:01.813Z,0.00
2018-06-29T00:51:01.767Z,0.00
2018-06-29T00:52:01.743Z,0.00
2018-06-29T00:53:01.671Z,0.00
2018-06-29T00:54:01.630Z,0.00
2018-06-29T00:55:01.578Z,0.00
2018-06-29T00:56:01.537Z,0.00
2018-06-29T00:57:01.513Z,0.00
2018-06-29T00:58:01.439Z,0.00
2018-06-29T00:59:01.399Z,0.00
2018-06-29T01:00:01.350Z,0.00
2018-06-29T01:01:01.300Z,0.00
2018-06-29T01:02:01.285Z,0.00
2018-06-29T01:03:01.212Z,0.00
2018-06-29T01:04:01.163Z,0.00
2018-06-29T01:05:01.119Z,0.00
2018-06-29T01:06:01.068Z,0.00
2018-06-29T01:07:01.046Z,0.00
2018-06-29T01:08:00.976Z,0.00
2018-06-29T01:09:00.942Z,0.00
2018-06-29T01:10:00.886Z,0.00
2018-06-29T01:11:00.850Z,0.00
2018-06-29T01:12:00.816Z,0.00
2018-06-29T01:13:00.748Z,0.00
2018-06-29T01:14:00.699Z,0.00
2018-06-29T01:15:00.649Z,0.00
2018-06-29T01:16:00.606Z,0.00
2018-06-29T01:17:00.587Z,0.00
2018-06-29T01:18:00.513Z,0.00
2018-06-29T01:19:00.469Z,0.00
2018-06-29T01:20:00.419Z,0.00
2018-06-29T01:21:00.379Z,0.00
2018-06-29T01:22:00.352Z,0.00
2018-06-29T01:23:00.280Z,0.00
2018-06-29T01:24:00.235Z,0.00
2018-06-29T01:25:00.186Z,0.00
2018-06-29T01:26:00.148Z,0.00
2018-06-29T01:27:00.121Z,0.00
2018-06-29T01:28:00.055Z,0.00
2018-06-29T01:29:00.007Z,0.00
2018-06-29T01:29:59.958Z,0.00
2018-06-29T01:30:59.911Z,0.00
2018-06-29T01:31:59.909Z,0.00
2018-06-29T01:32:59.818Z,0.00
2018-06-29T01:33:59.769Z,0.00
2018-06-29T01:34:59.725Z,0.00
2018-06-29T01:35:59.679Z,0.00
2018-06-29T01:36:59.632Z,0.00
2018-06-29T01:37:59.608Z,0.00
2018-06-29T01:38:59.538Z,0.00
2018-06-29T01:39:59.496Z,0.00
2018-06-29T01:40:59.444Z,0.00
2018-06-29T01:41:59.400Z,0.00
2018-06-29T01:42:59.377Z,0.00
2018-06-29T01:43:59.306Z,0.00
2018-06-29T01:44:59.261Z,0.00
2018-06-29T01:45:59.216Z,0.00
2018-06-29T01:46:59.169Z,0.00
2018-06-29T01:47:59.153Z,0.00
2018-06-29T01:48:59.076Z,0.00
2018-06-29T01:49:59.035Z,0.00
2018-06-29T01:50:58.980Z,0.00
2018-06-29T01:51:58.935Z,0.00
2018-06-29T01:52:58.916Z,0.00
2018-06-29T01:53:58.860Z,0.00
2018-06-29T01:54:58.792Z,0.00
2018-06-29T01:55:58.750Z,0.00
2018-06-29T01:56:58.706Z,0.00
2018-06-29T01:57:58.679Z,0.00
2018-06-29T01:58:58.612Z,0.00
2018-06-29T01:59:58.563Z,0.00
2018-06-29T02:00:58.522Z,0.00
2018-06-29T02:01:58.469Z,0.00
2018-06-29T02:02:58.464Z,0.00
2018-06-29T02:03:58.375Z,0.00
2018-06-29T02:04:58.330Z,0.00
2018-06-29T02:05:58.280Z,0.00
2018-06-29T02:06:58.237Z,0.00
2018-06-29T02:07:58.278Z,0.00
2018-06-29T02:08:58.143Z,0.00
2018-06-29T02:09:58.097Z,0.00
2018-06-29T02:10:58.048Z,0.00
2018-06-29T02:11:58.001Z,0.00
2018-06-29T02:12:57.980Z,0.00
2018-06-29T02:13:57.909Z,0.00
2018-06-29T02:14:57.861Z,0.00
2018-06-29T02:15:57.817Z,0.00
2018-06-29T02:16:57.769Z,0.00
2018-06-29T02:17:57.748Z,0.00
2018-06-29T02:18:57.676Z,0.00
2018-06-29T02:19:57.635Z,0.00
2018-06-29T02:20:57.592Z,0.00
2018-06-29T02:21:57.535Z,0.00
2018-06-29T02:22:57.511Z,0.00
2018-06-29T02:23:57.461Z,0.00
2018-06-29T02:24:57.396Z,0.00
2018-06-29T02:25:57.348Z,0.00
2018-06-29T02:26:57.303Z,0.00
2018-06-29T02:27:57.280Z,0.00
2018-06-29T02:28:57.210Z,0.00
2018-06-29T02:29:57.164Z,0.00
2018-06-29T02:30:57.121Z,0.00
2018-06-29T02:31:57.068Z,4.00
2018-06-29T02:32:57.050Z,4.00
2018-06-29T02:33:56.977Z,4.00
2018-06-29T02:34:56.932Z,0.00
2018-06-29T02:35:56.896Z,4.00
2018-06-29T02:36:56.835Z,4.00
2018-06-29T02:37:56.822Z,4.00
2018-06-29T02:38:56.745Z,4.00
2018-06-29T02:39:56.696Z,4.00
2018-06-29T02:40:56.654Z,8.00
2018-06-29T02:41:56.602Z,4.00
2018-06-29T02:42:56.582Z,8.00
2018-06-29T02:43:56.508Z,8.00
2018-06-29T02:44:56.463Z,12.00
2018-06-29T02:45:56.418Z,8.00
2018-06-29T02:46:56.367Z,8.00
2018-06-29T02:47:56.344Z,12.00
2018-06-29T02:48:56.275Z,16.00
2018-06-29T02:49:56.229Z,16.00
2018-06-29T02:50:56.182Z,16.00
2018-06-29T02:51:56.131Z,16.00
2018-06-29T02:52:56.109Z,20.00
2018-06-29T02:53:56.044Z,24.00
2018-06-29T02:54:55.996Z,24.00
2018-06-29T02:55:55.947Z,28.00
2018-06-29T02:56:55.899Z,28.00
2018-06-29T02:57:55.876Z,32.00
2018-06-29T02:58:55.806Z,36.00
2018-06-29T02:59:55.760Z,40.00
2018-06-29T03:00:55.712Z,44.00
2018-06-29T03:01:55.666Z,48.00
2018-06-29T03:02:55.648Z,52.00
2018-06-29T03:03:55.577Z,56.00
2018-06-29T03:04:55.524Z,60.00
2018-06-29T03:05:55.477Z,64.00
2018-06-29T03:06:55.432Z,72.00
2018-06-29T03:07:55.383Z,76.00
2018-06-29T03:08:55.363Z,80.00
2018-06-29T03:09:55.289Z,88.00
2018-06-29T03:10:55.245Z,92.00
2018-06-29T03:11:55.195Z,100.00
2018-06-29T03:12:55.144Z,108.00
2018-06-29T03:13:55.123Z,112.00
2018-06-29T03:14:55.052Z,120.00
2018-06-29T03:15:55.005Z,128.00
2018-06-29T03:16:54.960Z,140.00
2018-06-29T03:17:54.919Z,144.00
2018-06-29T03:18:54.885Z,152.00
2018-06-29T03:19:54.817Z,160.00
2018-06-29T03:20:54.765Z,168.00
2018-06-29T03:21:54.723Z,180.00
2018-06-29T03:22:54.675Z,184.00
2018-06-29T03:23:54.653Z,192.00
2018-06-29T03:24:54.579Z,200.00
2018-06-29T03:25:54.534Z,212.00
2018-06-29T03:26:54.486Z,224.00
2018-06-29T03:27:54.439Z,232.00
2018-06-29T03:28:54.418Z,240.00
2018-06-29T03:29:54.345Z,252.00
2018-06-29T03:30:54.300Z,260.00
2018-06-29T03:31:54.251Z,272.00
2018-06-29T03:32:54.242Z,280.00
2018-06-29T03:33:54.188Z,292.00
2018-06-29T03:34:54.107Z,300.00
2018-06-29T03:35:54.061Z,312.00
2018-06-29T03:36:54.016Z,320.00
2018-06-29T03:37:53.968Z,332.00
2018-06-29T03:38:53.942Z,340.00
2018-06-29T03:39:53.874Z,352.00
2018-06-29T03:40:53.832Z,364.00
2018-06-29T03:41:53.777Z,372.00
2018-06-29T03:42:53.736Z,384.00
2018-06-29T03:43:53.706Z,396.00
2018-06-29T03:44:53.638Z,408.00
2018-06-29T03:45:53.589Z,416.00
2018-06-29T03:46:53.543Z,428.00
2018-06-29T03:47:53.499Z,440.00
2018-06-29T03:48:53.475Z,452.00
2018-06-29T03:49:53.403Z,468.00
2018-06-29T03:50:53.361Z,476.00
2018-06-29T03:51:53.311Z,488.00
2018-06-29T03:52:53.265Z,500.00
2018-06-29T03:53:53.237Z,512.00
2018-06-29T03:54:53.162Z,520.00
2018-06-29T03:55:53.124Z,532.00
2018-06-29T03:56:53.072Z,544.00
2018-06-29T03:57:53.026Z,560.00
2018-06-29T03:58:53.001Z,572.00
2018-06-29T03:59:52.930Z,588.00
2018-06-29T04:00:52.885Z,616.00
2018-06-29T04:01:52.836Z,644.00
2018-06-29T04:02:52.788Z,680.00
2018-06-29T04:03:52.767Z,728.00
2018-06-29T04:04:52.697Z,788.00
2018-06-29T04:05:52.647Z,860.00
2018-06-29T04:06:52.604Z,940.00
2018-06-29T04:07:52.559Z,1040.00
2018-06-29T04:08:52.537Z,1148.00
2018-06-29T04:09:52.460Z,1264.00
2018-06-29T04:10:52.413Z,1396.00
2018-06-29T04:11:52.366Z,1540.00
2018-06-29T04:12:52.332Z,1680.00
2018-06-29T04:13:52.300Z,1832.00
2018-06-29T04:14:52.225Z,1980.00
2018-06-29T04:15:52.178Z,2144.00
2018-06-29T04:16:52.132Z,2308.00
2018-06-29T04:17:52.089Z,2492.00
2018-06-29T04:18:52.060Z,2680.00
2018-06-29T04:19:51.988Z,2872.00
2018-06-29T04:20:51.945Z,3064.00
2018-06-29T04:21:51.901Z,3260.00
2018-06-29T04:22:51.852Z,3452.00
2018-06-29T04:23:51.830Z,3636.00
2018-06-29T04:24:51.762Z,3800.00
2018-06-29T04:25:51.712Z,3928.00
2018-06-29T04:26:51.674Z,4060.00
2018-06-29T04:27:51.621Z,4184.00
2018-06-29T04:28:51.571Z,4304.00
2018-06-29T04:29:51.545Z,4404.00
2018-06-29T04:30:51.477Z,4500.00
2018-06-29T04:31:51.433Z,4580.00
2018-06-29T04:32:51.446Z,4660.00
2018-06-29T04:33:51.339Z,4736.00
2018-06-29T04:34:51.316Z,4840.00
2018-06-29T04:35:51.252Z,4924.00
2018-06-29T04:36:51.195Z,4992.00
2018-06-29T04:37:51.158Z,5052.00
2018-06-29T04:38:51.106Z,5112.00
2018-06-29T04:39:51.079Z,5184.00
2018-06-29T04:40:51.012Z,5236.00
2018-06-29T04:41:50.966Z,5312.00
2018-06-29T04:42:50.916Z,5360.00
2018-06-29T04:43:50.872Z,5400.00
2018-06-29T04:44:50.854Z,5444.00
2018-06-29T04:45:50.781Z,5488.00
2018-06-29T04:46:50.738Z,5532.00
2018-06-29T04:47:50.691Z,5588.00
2018-06-29T04:48:50.646Z,5636.00
2018-06-29T04:49:50.620Z,5692.00
2018-06-29T04:50:50.552Z,5736.00
2018-06-29T04:51:50.505Z,5780.00
2018-06-29T04:52:50.463Z,5812.00
2018-06-29T04:53:50.424Z,5852.00
2018-06-29T04:54:50.394Z,5900.00
2018-06-29T04:55:50.321Z,5940.00
2018-06-29T04:56:50.278Z,5980.00
2018-06-29T04:57:50.232Z,6016.00
2018-06-29T04:58:50.186Z,6060.00
2018-06-29T04:59:50.161Z,6092.00
2018-06-29T05:00:50.135Z,6128.00
2018-06-29T05:01:50.049Z,6164.00
2018-06-29T05:02:50.007Z,6212.00
2018-06-29T05:03:49.959Z,6240.00
2018-06-29T05:04:49.939Z,6292.00
2018-06-29T05:05:49.865Z,6324.00
2018-06-29T05:06:49.826Z,6384.00
2018-06-29T05:07:49.778Z,6420.00
2018-06-29T05:08:49.737Z,6440.00
2018-06-29T05:09:49.712Z,6468.00
2018-06-29T05:10:49.645Z,6508.00
2018-06-29T05:11:49.597Z,6544.00
2018-06-29T05:12:49.553Z,6564.00
2018-06-29T05:13:49.508Z,6600.00
2018-06-29T05:14:49.483Z,6636.00
2018-06-29T05:15:49.419Z,6668.00
2018-06-29T05:16:49.370Z,6712.00
2018-06-29T05:17:49.328Z,6728.00
2018-06-29T05:18:49.281Z,6748.00
2018-06-29T05:19:49.257Z,6764.00
2018-06-29T05:20:49.187Z,6796.00
2018-06-29T05:21:49.146Z,6812.00
2018-06-29T05:22:49.099Z,6856.00
2018-06-29T05:23:49.058Z,6880.00
2018-06-29T05:24:49.035Z,6896.00
2018-06-29T05:25:48.971Z,6924.00
2018-06-29T05:26:48.919Z,6936.00
2018-06-29T05:27:48.883Z,6960.00
2018-06-29T05:28:48.838Z,6976.00
2018-06-29T05:29:48.819Z,7004.00
2018-06-29T05:30:48.744Z,5560.00
2018-06-29T05:31:48.702Z,5576.00
2018-06-29T05:32:48.656Z,5596.00
2018-06-29T05:33:48.612Z,5608.00
2018-06-29T05:34:56.121Z,5616.00
2018-06-29T05:35:48.535Z,5640.00
2018-06-29T05:36:48.478Z,5652.00
2018-06-29T05:37:48.433Z,5668.00
2018-06-29T05:38:48.389Z,5676.00
2018-06-29T05:39:48.366Z,5692.00
2018-06-29T05:40:48.304Z,5692.00
2018-06-29T05:41:48.311Z,5724.00
2018-06-29T05:42:48.215Z,5732.00
2018-06-29T05:43:48.163Z,5748.00
2018-06-29T05:44:48.126Z,5740.00
2018-06-29T05:45:48.099Z,5752.00
2018-06-29T05:46:48.036Z,5760.00
2018-06-29T05:47:47.990Z,5756.00
2018-06-29T05:48:47.948Z,5760.00
2018-06-29T05:49:47.896Z,5768.00
2018-06-29T05:50:47.881Z,5780.00
2018-06-29T05:51:47.813Z,5780.00
2018-06-29T05:52:47.777Z,5800.00
2018-06-29T05:53:47.722Z,5796.00
2018-06-29T05:54:47.682Z,5812.00
2018-06-29T05:55:47.659Z,5792.00
2018-06-29T05:56:47.593Z,5620.00
2018-06-29T05:57:47.546Z,5632.00
2018-06-29T05:58:47.504Z,5628.00
2018-06-29T05:59:47.457Z,5636.00
2018-06-29T06:00:47.439Z,5632.00
2018-06-29T06:01:47.369Z,5628.00
2018-06-29T06:02:47.329Z,5624.00
2018-06-29T06:03:47.279Z,5624.00
2018-06-29T06:04:47.266Z,5636.00
2018-06-29T06:05:47.218Z,5620.00
2018-06-29T06:06:47.155Z,5644.00
2018-06-29T06:07:47.104Z,5644.00
2018-06-29T06:08:47.065Z,5640.00
2018-06-29T06:09:47.013Z,5640.00
2018-06-29T06:10:46.996Z,5640.00
2018-06-29T06:11:46.927Z,5640.00
2018-06-29T06:12:46.889Z,5632.00
2018-06-29T06:13:46.839Z,5624.00
2018-06-29T06:14:46.801Z,5628.00
2018-06-29T06:15:46.778Z,5636.00
2018-06-29T06:16:46.714Z,5624.00
2018-06-29T06:17:46.660Z,5616.00
2018-06-29T06:18:46.624Z,5608.00
2018-06-29T06:19:46.576Z,5612.00
2018-06-29T06:20:46.559Z,5612.00
2018-06-29T06:21:46.493Z,5596.00
2018-06-29T06:22:46.446Z,5592.00
2018-06-29T06:23:46.407Z,5596.00
2018-06-29T06:24:46.361Z,5572.00
2018-06-29T06:25:46.341Z,5560.00
2018-06-29T06:26:46.273Z,5564.00
2018-06-29T06:27:46.227Z,5556.00
2018-06-29T06:28:46.182Z,5548.00
2018-06-29T06:29:46.137Z,5544.00
2018-06-29T06:30:46.124Z,5540.00
2018-06-29T06:31:46.052Z,5524.00
2018-06-29T06:32:46.010Z,5512.00
2018-06-29T06:33:45.966Z,5500.00
2018-06-29T06:34:45.921Z,5500.00
2018-06-29T06:35:45.905Z,5492.00
2018-06-29T06:36:45.833Z,5488.00
2018-06-29T06:37:45.790Z,5472.00
2018-06-29T06:38:45.746Z,5460.00
2018-06-29T06:39:45.701Z,5432.00
2018-06-29T06:40:45.684Z,5432.00
2018-06-29T06:41:45.616Z,5424.00
2018-06-29T06:42:45.576Z,5400.00
2018-06-29T06:43:45.532Z,5392.00
2018-06-29T06:44:45.491Z,5380.00
2018-06-29T06:45:45.470Z,5376.00
2018-06-29T06:46:45.399Z,5364.00
2018-06-29T06:47:45.357Z,5356.00
2018-06-29T06:48:45.311Z,5348.00
2018-06-29T06:49:45.276Z,5328.00
2018-06-29T06:50:45.253Z,5312.00
2018-06-29T06:51:45.185Z,5316.00
2018-06-29T06:52:45.143Z,5272.00
2018-06-29T06:53:45.173Z,5264.00
2018-06-29T06:54:45.061Z,5236.00
2018-06-29T06:55:45.036Z,5224.00
2018-06-29T06:56:44.970Z,5216.00
2018-06-29T06:57:44.931Z,5192.00
2018-06-29T06:58:44.885Z,5172.00
2018-06-29T06:59:44.845Z,5144.00
2018-06-29T07:00:44.819Z,5156.00
2018-06-29T07:01:44.756Z,5136.00
2018-06-29T07:02:44.712Z,5108.00
2018-06-29T07:03:44.669Z,5084.00
2018-06-29T07:04:44.627Z,5048.00
2018-06-29T07:05:44.609Z,5032.00
2018-06-29T07:06:44.546Z,5044.00
2018-06-29T07:07:44.499Z,5020.00
2018-06-29T07:08:44.456Z,4992.00
2018-06-29T07:09:44.419Z,4988.00
2018-06-29T07:10:44.399Z,4976.00
2018-06-29T07:11:44.330Z,4964.00
2018-06-29T07:12:44.298Z,4936.00
2018-06-29T07:13:44.247Z,4936.00
2018-06-29T07:14:44.201Z,4936.00
2018-06-29T07:15:44.200Z,4920.00
2018-06-29T07:16:44.119Z,4896.00
2018-06-29T07:17:44.080Z,4880.00
2018-06-29T07:18:44.036Z,4844.00
2018-06-29T07:19:43.987Z,4808.00
2018-06-29T07:20:43.947Z,4776.00
2018-06-29T07:21:43.930Z,4728.00
2018-06-29T07:22:43.868Z,4724.00
2018-06-29T07:23:43.824Z,4712.00
2018-06-29T07:24:43.782Z,4648.00
2018-06-29T07:25:43.736Z,4656.00
2018-06-29T07:26:43.718Z,4640.00
2018-06-29T07:27:43.651Z,4600.00
2018-06-29T07:28:43.609Z,4600.00
2018-06-29T07:29:43.567Z,4568.00
2018-06-29T07:30:43.530Z,4544.00
2018-06-29T07:31:43.514Z,4520.00
2018-06-29T07:32:43.444Z,4488.00
2018-06-29T07:33:43.404Z,4460.00
2018-06-29T07:34:43.356Z,4436.00
2018-06-29T07:35:43.316Z,4416.00
2018-06-29T07:36:43.299Z,4384.00
2018-06-29T07:37:43.234Z,4356.00
2018-06-29T07:38:43.246Z,4336.00
2018-06-29T07:39:43.151Z,4324.00
2018-06-29T07:40:43.109Z,4292.00
2018-06-29T07:41:43.094Z,4272.00
2018-06-29T07:42:43.028Z,4256.00
2018-06-29T07:43:42.987Z,4232.00
2018-06-29T07:44:42.946Z,4172.00
2018-06-29T07:45:42.902Z,4168.00
2018-06-29T07:46:42.911Z,4144.00
2018-06-29T07:47:42.822Z,4128.00
2018-06-29T07:48:42.784Z,4104.00
2018-06-29T07:49:42.740Z,4080.00
2018-06-29T07:50:42.728Z,4068.00
2018-06-29T07:51:42.678Z,4032.00
2018-06-29T07:52:42.622Z,4016.00
2018-06-29T07:53:42.570Z,3984.00
2018-06-29T07:54:42.528Z,3972.00
2018-06-29T07:55:42.489Z,3932.00
2018-06-29T07:56:42.472Z,3912.00
2018-06-29T07:57:42.408Z,3864.00
2018-06-29T07:58:42.423Z,3852.00
2018-06-29T07:59:42.320Z,3820.00
2018-06-29T08:00:42.281Z,3784.00
2018-06-29T08:01:42.263Z,3768.00
2018-06-29T08:02:42.233Z,3740.00
2018-06-29T08:03:42.162Z,3708.00
2018-06-29T08:04:42.118Z,3668.00
2018-06-29T08:05:42.076Z,3644.00
2018-06-29T08:06:42.055Z,3628.00
2018-06-29T08:07:41.993Z,3628.00
2018-06-29T08:08:41.961Z,3572.00
2018-06-29T08:09:41.913Z,3552.00
2018-06-29T08:10:41.901Z,3508.00
2018-06-29T08:11:41.852Z,3468.00
2018-06-29T08:12:41.793Z,3424.00
2018-06-29T08:13:41.746Z,3400.00
2018-06-29T08:14:41.713Z,3348.00
2018-06-29T08:15:41.667Z,3336.00
2018-06-29T08:16:41.648Z,3312.00
2018-06-29T08:17:41.587Z,3268.00
2018-06-29T08:18:41.544Z,3220.00
2018-06-29T08:19:41.500Z,3184.00
2018-06-29T08:20:41.461Z,3132.00
2018-06-29T08:21:41.457Z,3060.00
2018-06-29T08:22:41.379Z,3020.00
2018-06-29T08:23:41.337Z,2984.00
2018-06-29T08:24:41.299Z,2924.00
2018-06-29T08:25:41.261Z,2904.00
2018-06-29T08:26:41.243Z,2888.00
2018-06-29T08:29:12.678Z,2740.00
2018-06-29T08:30:12.633Z,2716.00
2018-06-29T08:31:12.588Z,2688.00
2018-06-29T08:32:12.570Z,2636.00
2018-06-29T08:33:12.511Z,2568.00
2018-06-29T08:34:12.468Z,2508.00
2018-06-29T08:35:12.427Z,2460.00
2018-06-29T08:36:12.389Z,2424.00
2018-06-29T08:37:12.362Z,2412.00
2018-06-29T08:38:12.300Z,2376.00
2018-06-29T08:39:12.259Z,2312.00
2018-06-29T08:40:12.218Z,2212.00
2018-06-29T08:41:12.178Z,2240.00
2018-06-29T08:42:12.160Z,2228.00
2018-06-29T08:43:12.100Z,2200.00
2018-06-29T08:44:12.060Z,2172.00
2018-06-29T08:45:12.013Z,2144.00
2018-06-29T08:46:11.973Z,2128.00
2018-06-29T08:47:11.956Z,2128.00
2018-06-29T08:48:11.888Z,2120.00
2018-06-29T08:49:11.847Z,2120.00
2018-06-29T08:50:11.808Z,2120.00
2018-06-29T08:51:11.770Z,2120.00
2018-06-29T08:52:11.751Z,2100.00
2018-06-29T08:53:11.684Z,2104.00
2018-06-29T08:54:11.641Z,2088.00
2018-06-29T08:55:11.600Z,2084.00
2018-06-29T08:56:11.559Z,2080.00
2018-06-29T08:57:11.539Z,2060.00
2018-06-29T08:58:11.476Z,2084.00
2018-06-29T08:59:11.437Z,2076.00
2018-06-29T09:00:11.390Z,2088.00
2018-06-29T09:01:11.356Z,2084.00
2018-06-29T09:02:11.334Z,2092.00
2018-06-29T09:03:11.269Z,2072.00
2018-06-29T09:04:11.226Z,2080.00
2018-06-29T09:05:11.188Z,2060.00
2018-06-29T09:06:11.154Z,2064.00
2018-06-29T09:07:11.130Z,2080.00
2018-06-29T09:08:11.062Z,2096.00
2018-06-29T09:09:11.027Z,2052.00
2018-06-29T09:10:10.980Z,2084.00
2018-06-29T09:11:10.941Z,2136.00
2018-06-29T09:12:10.923Z,2132.00
2018-06-29T09:13:10.858Z,2128.00
2018-06-29T09:14:10.813Z,2132.00
2018-06-29T09:15:10.773Z,2128.00
2018-06-29T09:16:10.733Z,2132.00
2018-06-29T09:17:10.715Z,2136.00
2018-06-29T09:18:10.653Z,2132.00
2018-06-29T09:19:10.712Z,2124.00
2018-06-29T09:20:10.572Z,2144.00
2018-06-29T09:21:10.527Z,2164.00
2018-06-29T09:22:10.516Z,2144.00
2018-06-29T09:23:10.449Z,2220.00
2018-06-29T09:24:10.403Z,2172.00
2018-06-29T09:25:10.361Z,2172.00
2018-06-29T09:26:10.321Z,2156.00
2018-06-29T09:27:10.321Z,2160.00
2018-06-29T09:28:10.247Z,2168.00
2018-06-29T09:29:10.196Z,2160.00
2018-06-29T09:30:10.159Z,2160.00
2018-06-29T09:31:10.114Z,2124.00
2018-06-29T09:32:10.071Z,2120.00
2018-06-29T09:33:10.060Z,2148.00
2018-06-29T09:34:09.990Z,2164.00
2018-06-29T09:35:09.952Z,2192.00
2018-06-29T09:36:09.913Z,2168.00
2018-06-29T09:37:09.869Z,2192.00
2018-06-29T09:38:09.855Z,2176.00
2018-06-29T09:39:09.788Z,2180.00
2018-06-29T09:40:09.751Z,2172.00
2018-06-29T09:41:09.709Z,2164.00
2018-06-29T09:42:09.665Z,2156.00
2018-06-29T09:43:09.647Z,2144.00
2018-06-29T09:44:09.586Z,2156.00
2018-06-29T09:45:09.549Z,2152.00
2018-06-29T09:46:09.507Z,2164.00
2018-06-29T09:47:09.462Z,2132.00
2018-06-29T09:48:09.648Z,2132.00
2018-06-29T09:49:09.382Z,2132.00
2018-06-29T09:50:09.341Z,2124.00
2018-06-29T09:51:09.306Z,2116.00
2018-06-29T09:52:09.255Z,2140.00
2018-06-29T09:53:09.240Z,2180.00
2018-06-29T09:54:09.183Z,2168.00
2018-06-29T09:55:09.137Z,2144.00
2018-06-29T09:56:09.095Z,2136.00
2018-06-29T09:57:09.056Z,2132.00
2018-06-29T09:58:09.034Z,2116.00
2018-06-29T09:59:08.971Z,2124.00
2018-06-29T10:00:08.932Z,2128.00
2018-06-29T10:01:08.950Z,2164.00
2018-06-29T10:02:08.847Z,2140.00
2018-06-29T10:03:08.831Z,2156.00
2018-06-29T10:04:08.768Z,2168.00
2018-06-29T10:05:08.725Z,2172.00
2018-06-29T10:06:08.685Z,2164.00
2018-06-29T10:07:08.648Z,2188.00
2018-06-29T10:08:08.628Z,2160.00
2018-06-29T10:09:08.564Z,2164.00
2018-06-29T10:10:08.527Z,2160.00
2018-06-29T10:11:08.488Z,2164.00
2018-06-29T10:12:08.448Z,2160.00
2018-06-29T10:13:08.439Z,2144.00
2018-06-29T10:14:08.429Z,2152.00
2018-06-29T10:15:08.329Z,2152.00
2018-06-29T10:16:08.284Z,2140.00
2018-06-29T10:17:08.247Z,2120.00
2018-06-29T10:18:08.229Z,2192.00
2018-06-29T10:19:08.158Z,2168.00
2018-06-29T10:20:08.239Z,2160.00
2018-06-29T10:21:08.086Z,2168.00
2018-06-29T10:22:08.103Z,2164.00
2018-06-29T10:23:08.026Z,2160.00
2018-06-29T10:24:07.979Z,2156.00
2018-06-29T10:25:07.979Z,2152.00
2018-06-29T10:26:07.883Z,2140.00
2018-06-29T10:27:07.842Z,2152.00
2018-06-29T10:28:07.889Z,2148.00
2018-06-29T10:29:07.767Z,2144.00
2018-06-29T10:30:07.724Z,2152.00
2018-06-29T10:31:07.687Z,2160.00
2018-06-29T10:32:07.638Z,2128.00
2018-06-29T10:33:07.627Z,2148.00
2018-06-29T10:34:07.567Z,2144.00
2018-06-29T10:35:07.523Z,2144.00
2018-06-29T10:36:07.529Z,2156.00
2018-06-29T10:37:07.443Z,2144.00
2018-06-29T10:38:07.426Z,2140.00
2018-06-29T10:39:07.365Z,2136.00
2018-06-29T10:40:07.323Z,2172.00
2018-06-29T10:41:07.282Z,2156.00
2018-06-29T10:42:07.241Z,2156.00
2018-06-29T10:43:07.227Z,2152.00
2018-06-29T10:44:07.164Z,2144.00
2018-06-29T10:45:07.130Z,2144.00
2018-06-29T10:46:07.085Z,2164.00
2018-06-29T10:47:07.051Z,2136.00
2018-06-29T10:48:07.030Z,2144.00
2018-06-29T10:49:06.969Z,2148.00
2018-06-29T10:50:06.925Z,2152.00
2018-06-29T10:51:06.886Z,2148.00
2018-06-29T10:52:06.855Z,2200.00
2018-06-29T10:53:06.838Z,2188.00
2018-06-29T10:54:06.772Z,2184.00
2018-06-29T10:55:06.729Z,2192.00
2018-06-29T10:56:06.691Z,2212.00
2018-06-29T10:57:06.646Z,2180.00
2018-06-29T10:58:06.636Z,2204.00
2018-06-29T10:59:06.566Z,2224.00
2018-06-29T11:00:06.528Z,2228.00
2018-06-29T11:01:06.493Z,2260.00
2018-06-29T11:02:06.451Z,2304.00
2018-06-29T11:03:06.424Z,2332.00
2018-06-29T11:04:06.392Z,2320.00
2018-06-29T11:05:06.331Z,2272.00
2018-06-29T11:06:06.290Z,2172.00
2018-06-29T11:07:06.252Z,2244.00
2018-06-29T11:08:06.209Z,2244.00
2018-06-29T11:09:06.194Z,2176.00
2018-06-29T11:10:06.129Z,2184.00
2018-06-29T11:11:06.092Z,2124.00
2018-06-29T11:12:06.050Z,2256.00
2018-06-29T11:13:06.031Z,2272.00
2018-06-29T11:14:05.990Z,2228.00
2018-06-29T11:15:05.932Z,2184.00
2018-06-29T11:16:05.889Z,2088.00
2018-06-29T11:17:05.852Z,2076.00
2018-06-29T11:18:05.816Z,1976.00
2018-06-29T11:19:05.795Z,1968.00
2018-06-29T11:20:05.733Z,1932.00
2018-06-29T11:21:05.690Z,1832.00
2018-06-29T11:22:05.649Z,1932.00
2018-06-29T11:23:05.611Z,1948.00
2018-06-29T11:24:05.596Z,1956.00
2018-06-29T11:25:05.529Z,1972.00
2018-06-29T11:26:05.487Z,1960.00
2018-06-29T11:27:05.447Z,1992.00
2018-06-29T11:28:05.412Z,1976.00
2018-06-29T11:29:05.392Z,1984.00
2018-06-29T11:30:05.344Z,1996.00
2018-06-29T11:31:05.287Z,1988.00
2018-06-29T11:32:05.245Z,1984.00
2018-06-29T11:33:05.204Z,1976.00
2018-06-29T11:34:05.191Z,1988.00
2018-06-29T11:35:05.126Z,1992.00
2018-06-29T11:36:05.095Z,1984.00
2018-06-29T11:37:05.047Z,1980.00
2018-06-29T11:38:05.004Z,2020.00
2018-06-29T11:39:04.986Z,2052.00
2018-06-29T11:40:04.924Z,2088.00
2018-06-29T11:41:04.898Z,2100.00
2018-06-29T11:42:04.846Z,2092.00
2018-06-29T11:43:04.807Z,2068.00
2018-06-29T11:44:04.800Z,2128.00
2018-06-29T11:45:04.720Z,2112.00
2018-06-29T11:46:04.684Z,2124.00
2018-06-29T11:47:04.634Z,2156.00
2018-06-29T11:48:04.599Z,2164.00
2018-06-29T11:49:04.588Z,2172.00
2018-06-29T11:50:04.521Z,2124.00
2018-06-29T11:51:04.478Z,2116.00
2018-06-29T11:52:04.437Z,2076.00
2018-06-29T11:53:04.397Z,2128.00
2018-06-29T11:54:04.395Z,2112.00
2018-06-29T11:55:04.316Z,2104.00
2018-06-29T11:56:04.284Z,2108.00
2018-06-29T11:57:04.236Z,2140.00
2018-06-29T11:58:04.192Z,2180.00
2018-06-29T11:59:04.176Z,2172.00
2018-06-29T12:00:04.111Z,2168.00
2018-06-29T12:01:04.074Z,2120.00
2018-06-29T12:02:04.031Z,2260.00
2018-06-29T12:03:03.989Z,2152.00
2018-06-29T12:04:03.970Z,2184.00
2018-06-29T12:05:03.909Z,2148.00
2018-06-29T12:06:03.870Z,2176.00
2018-06-29T12:07:03.835Z,2140.00
2018-06-29T12:08:03.790Z,2136.00
2018-06-29T12:09:03.767Z,2156.00
2018-06-29T12:10:03.703Z,2080.00
2018-06-29T12:11:03.662Z,2096.00
2018-06-29T12:12:03.623Z,2152.00
2018-06-29T12:13:03.583Z,2172.00
2018-06-29T12:14:03.564Z,2168.00
2018-06-29T12:15:03.511Z,2100.00
2018-06-29T12:16:03.456Z,2032.00
2018-06-29T12:17:03.422Z,2008.00
2018-06-29T12:18:03.376Z,1944.00
2018-06-29T12:19:03.364Z,1960.00
2018-06-29T12:20:03.297Z,1960.00
2018-06-29T12:21:03.260Z,1952.00
2018-06-29T12:22:03.216Z,1928.00
2018-06-29T12:23:03.176Z,1880.00
2018-06-29T12:24:03.158Z,1928.00
2018-06-29T12:25:03.097Z,1964.00